メインページ
METAR-TAF:

METAR-TAF

空港 :

高知空港

高知, 日本

緯度: 33-32N, 経度: 133-40E, 海抜: 7m

現時点の気象観測

当レポートは59分前の11:00(UTC)に作成
東/南東の風 7kt
気温 20°C
湿度 56%
気圧 1018 hPa
視程10km以上
高度3000ftの雲はほとんどない
高度7000ftの千切れ雲あり
千切れ雲あり

METAR: RJOK 201100Z 12007KT 9999 FEW030 BKN070 BKN/// 20/11 Q1018

時間: 20:59 (11:59 UTC)

予報

当レポートは50分前の11:09(UTC)に作成
予報は20日の 12時(UTC)から 21日の 18時(UTC)まで有効
南東の風 5kt
視程10km以上
高度3000ftの雲はほとんどない
高度5000ftの千切れ雲あり
20日の 12時(UTC)から 20日の 14時(UTC)まで徐々に
の風 6kt
21日の 00時(UTC)から 21日の 03時(UTC)まで徐々に
南東の風 12kt
21日の 12時(UTC)から 21日の 15時(UTC)まで徐々に
の風 4kt

TAF: RJOK 201109Z 2012/2118 13005KT 9999 FEW030 BKN050 BECMG 2012/2014 35006KT BECMG 2100/2103 14012KT BECMG 2112/2115 35004KT

4,000以上の空港の気象観測と天気予報(METAR報とTAF報)

利用可能な観測所は地図上に黄色い丸と赤い丸で示す。

丸の上にカーソルを重ねると観測所名を参照できる。

次にクリックすると気象観測と天気予報を参照できる。

マップの切り替え:黒色「×」印の緑ボタンをクリックして拡大、「-」印の緑ボタンをクリックして縮小、緑色の三角印をクリックして隣りの地図に切り替え


METAR-TAF: